createdAt,value
2022-11-07T00:01:45.513Z,11.63
2022-11-07T00:04:12.641Z,10.33
2022-11-07T00:06:39.678Z,10.43
2022-11-07T00:09:06.794Z,10.13
2022-11-07T00:11:33.842Z,9.73
2022-11-07T00:14:00.892Z,11.63
2022-11-07T00:16:29.292Z,9.63
2022-11-07T00:18:56.541Z,9.87
2022-11-07T00:21:23.946Z,9.57
2022-11-07T00:23:51.077Z,8.17
2022-11-07T00:26:18.178Z,9.80
2022-11-07T00:28:45.639Z,9.17
2022-11-07T00:31:13.572Z,10.90
2022-11-07T00:33:41.162Z,10.10
2022-11-07T00:36:08.607Z,10.30
2022-11-07T00:38:35.703Z,9.40
2022-11-07T00:41:04.201Z,9.37
2022-11-07T00:43:31.687Z,9.27
2022-11-07T00:46:01.461Z,10.93
2022-11-07T00:48:28.684Z,10.83
2022-11-07T00:50:55.703Z,9.97
2022-11-07T00:53:22.821Z,10.80
2022-11-07T00:55:49.901Z,13.17
2022-11-07T00:58:17.636Z,10.43
2022-11-07T01:00:44.773Z,12.13
2022-11-07T01:03:30.634Z,12.23
2022-11-07T01:06:04.174Z,10.80
2022-11-07T01:08:31.563Z,10.47
2022-11-07T01:10:59.481Z,10.27
2022-11-07T01:13:27.097Z,11.83
2022-11-07T01:15:54.160Z,11.43
2022-11-07T01:18:21.197Z,11.30
2022-11-07T01:20:49.574Z,13.33
2022-11-07T01:23:17.907Z,10.97
2022-11-07T01:25:45.259Z,14.03
2022-11-07T01:28:12.503Z,14.00
2022-11-07T01:30:40.449Z,12.33
2022-11-07T01:33:07.504Z,12.87
2022-11-07T01:35:35.229Z,11.83
2022-11-07T01:38:02.256Z,12.43
2022-11-07T01:40:29.400Z,13.00
2022-11-07T01:42:56.661Z,14.47
2022-11-07T01:45:25.228Z,15.07
2022-11-07T01:47:52.812Z,15.67
2022-11-07T01:50:20.808Z,16.43
2022-11-07T01:52:49.508Z,12.73
2022-11-07T01:55:18.357Z,14.33
2022-11-07T01:57:51.598Z,14.00
2022-11-07T02:00:20.746Z,14.67
2022-11-07T02:02:49.334Z,14.10
2022-11-07T02:05:21.374Z,12.20
2022-11-07T02:07:48.515Z,14.23
2022-11-07T02:10:16.600Z,15.27
2022-11-07T02:12:43.736Z,15.50
2022-11-07T02:15:11.181Z,11.50
2022-11-07T02:17:38.294Z,14.33
2022-11-07T02:20:05.539Z,17.83
2022-11-07T02:22:42.176Z,14.93
2022-11-07T02:25:10.763Z,15.73
2022-11-07T02:27:39.237Z,11.67
2022-11-07T02:30:26.663Z,14.60
2022-11-07T02:32:53.984Z,14.20
2022-11-07T02:35:33.212Z,13.67
2022-11-07T02:38:00.570Z,13.73
2022-11-07T02:40:28.188Z,13.93
2022-11-07T02:42:55.327Z,12.97
2022-11-07T02:45:25.181Z,13.77
2022-11-07T02:47:52.234Z,13.90
2022-11-07T02:50:19.266Z,13.83
2022-11-07T02:52:46.304Z,14.27
2022-11-07T02:55:14.066Z,14.67
2022-11-07T02:57:41.328Z,13.40
2022-11-07T03:00:09.231Z,17.53
2022-11-07T03:02:36.396Z,15.17
2022-11-07T03:05:03.901Z,17.17
2022-11-07T03:07:30.962Z,14.30
2022-11-07T03:09:58.052Z,13.83
2022-11-07T03:12:25.083Z,14.80
2022-11-07T03:14:52.142Z,15.63
2022-11-07T03:17:19.211Z,15.40
2022-11-07T03:19:46.379Z,15.50
2022-11-07T03:22:13.422Z,18.07
2022-11-07T03:24:40.493Z,14.43
2022-11-07T03:27:07.518Z,13.93
2022-11-07T03:29:34.561Z,15.60
2022-11-07T03:32:01.593Z,13.27
2022-11-07T03:34:28.714Z,15.27
2022-11-07T03:36:55.748Z,13.63
2022-11-07T03:39:25.820Z,14.27
2022-11-07T03:41:53.343Z,14.77
2022-11-07T03:44:20.409Z,13.73
2022-11-07T03:46:47.437Z,14.07
2022-11-07T03:49:14.514Z,14.17
2022-11-07T03:51:41.543Z,13.37
2022-11-07T03:54:08.590Z,14.27
2022-11-07T03:56:35.622Z,14.83
2022-11-07T03:59:02.695Z,13.77
2022-11-07T04:01:29.765Z,15.40
2022-11-07T04:03:56.891Z,14.93
2022-11-07T04:06:24.105Z,15.63
2022-11-07T04:08:51.198Z,12.40
2022-11-07T04:11:36.769Z,12.90
2022-11-07T04:14:22.480Z,14.27
2022-11-07T04:17:08.373Z,12.33
2022-11-07T04:19:35.409Z,14.87
2022-11-07T04:22:02.454Z,14.80
2022-11-07T04:24:29.478Z,13.43
2022-11-07T04:27:15.471Z,13.50
2022-11-07T04:29:42.524Z,15.20
2022-11-07T04:32:09.573Z,12.67
2022-11-07T04:34:36.652Z,12.80
2022-11-07T04:37:03.714Z,12.47
2022-11-07T04:39:30.747Z,13.00
2022-11-07T04:41:57.811Z,11.97
2022-11-07T04:44:24.823Z,12.57
2022-11-07T04:46:51.892Z,14.30
2022-11-07T04:49:19.165Z,13.33
2022-11-07T04:51:46.210Z,12.40
2022-11-07T04:54:16.628Z,11.90
2022-11-07T04:56:43.663Z,14.37
2022-11-07T04:59:10.711Z,11.90
2022-11-07T05:01:37.794Z,13.20
2022-11-07T05:04:04.946Z,13.43
2022-11-07T05:06:35.926Z,12.77
2022-11-07T05:09:03.043Z,12.20
2022-11-07T05:11:30.113Z,12.47
2022-11-07T05:13:57.120Z,11.00
2022-11-07T05:16:24.228Z,14.60
2022-11-07T05:18:51.280Z,14.00
2022-11-07T05:21:18.307Z,12.03
2022-11-07T05:23:45.338Z,13.23
2022-11-07T05:26:12.394Z,13.23
2022-11-07T05:28:40.025Z,15.07
2022-11-07T05:31:08.096Z,13.40
2022-11-07T05:33:35.651Z,12.73
2022-11-07T05:36:09.729Z,12.33
2022-11-07T05:38:36.809Z,12.37
2022-11-07T05:41:04.739Z,11.60
2022-11-07T05:43:31.801Z,13.13
2022-11-07T05:46:02.132Z,11.97
2022-11-07T05:48:30.481Z,14.37
2022-11-07T05:50:58.031Z,13.13
2022-11-07T05:53:25.747Z,13.77
2022-11-07T05:55:53.197Z,11.03
2022-11-07T05:58:21.190Z,14.43
2022-11-07T06:00:48.709Z,14.37
2022-11-07T06:03:16.226Z,14.07
2022-11-07T06:05:43.904Z,14.07
2022-11-07T06:08:12.767Z,16.23
2022-11-07T06:10:40.900Z,12.90
2022-11-07T06:13:09.416Z,13.67
2022-11-07T06:15:37.702Z,16.53
2022-11-07T06:18:05.655Z,11.30
2022-11-07T06:20:32.985Z,13.83
2022-11-07T06:23:00.489Z,13.73
2022-11-07T06:25:28.252Z,12.10
2022-11-07T06:27:59.527Z,13.10
2022-11-07T06:30:26.667Z,13.67
2022-11-07T06:32:53.787Z,13.23
2022-11-07T06:35:20.923Z,13.40
2022-11-07T06:37:47.980Z,12.93
2022-11-07T06:40:15.126Z,13.60
2022-11-07T06:42:42.167Z,13.33
2022-11-07T06:45:09.442Z,15.80
2022-11-07T06:47:36.478Z,12.20
2022-11-07T06:50:03.644Z,14.03
2022-11-07T06:52:30.716Z,12.60
2022-11-07T06:54:57.759Z,13.33
2022-11-07T06:57:24.864Z,13.83
2022-11-07T06:59:52.251Z,12.47
2022-11-07T07:02:37.092Z,13.73
2022-11-07T07:05:06.779Z,15.63
2022-11-07T07:07:33.808Z,12.73
2022-11-07T07:10:00.960Z,11.67
2022-11-07T07:12:27.976Z,11.50
2022-11-07T07:14:55.033Z,15.27
2022-11-07T07:17:22.094Z,13.13
2022-11-07T07:19:49.114Z,15.53
2022-11-07T07:22:16.134Z,12.73
2022-11-07T07:24:43.255Z,12.43
2022-11-07T07:27:10.625Z,12.23
2022-11-07T07:29:37.686Z,12.13
2022-11-07T07:32:04.817Z,11.93
2022-11-07T07:34:31.877Z,11.33
2022-11-07T07:36:58.939Z,12.53
2022-11-07T07:39:27.835Z,10.33
2022-11-07T07:41:54.894Z,12.20
2022-11-07T07:44:21.922Z,11.47
2022-11-07T07:46:49.200Z,14.40
2022-11-07T07:49:16.281Z,9.80
2022-11-07T07:51:43.331Z,10.30
2022-11-07T07:54:11.987Z,13.47
2022-11-07T07:56:39.031Z,12.70
2022-11-07T07:59:06.503Z,9.93
2022-11-07T08:01:33.904Z,10.03
2022-11-07T08:04:02.497Z,8.80
2022-11-07T08:06:30.196Z,13.13
2022-11-07T08:08:57.222Z,10.57
2022-11-07T08:11:24.319Z,9.83
2022-11-07T08:13:51.558Z,9.43
2022-11-07T08:16:18.634Z,10.00
2022-11-07T08:18:45.652Z,8.87
2022-11-07T08:21:12.732Z,8.63
2022-11-07T08:23:39.828Z,8.70
2022-11-07T08:26:06.995Z,7.37
2022-11-07T08:28:35.511Z,8.70
2022-11-07T08:31:07.624Z,6.90
2022-11-07T08:33:35.167Z,7.83
2022-11-07T08:36:02.829Z,9.80
2022-11-07T08:38:30.670Z,11.70
2022-11-07T08:40:57.801Z,7.60
2022-11-07T08:43:25.272Z,7.40
2022-11-07T08:45:53.183Z,8.37
2022-11-07T08:48:20.535Z,7.17
2022-11-07T08:50:51.642Z,5.87
2022-11-07T08:53:18.898Z,8.10
2022-11-07T08:55:46.058Z,6.33
2022-11-07T08:58:14.782Z,6.40
2022-11-07T09:00:42.264Z,5.17
2022-11-07T09:05:58.802Z,4.67
2022-11-07T09:08:25.856Z,6.10
2022-11-07T09:10:52.910Z,4.43
2022-11-07T09:13:23.036Z,3.90
2022-11-07T09:15:51.793Z,3.77
2022-11-07T09:18:19.873Z,3.60
2022-11-07T09:20:47.392Z,3.40
2022-11-07T09:23:14.960Z,4.53
2022-11-07T09:25:42.268Z,4.07
2022-11-07T09:28:09.618Z,5.33
2022-11-07T09:30:36.666Z,2.87
2022-11-07T09:33:03.955Z,2.53
2022-11-07T09:35:30.990Z,4.10
2022-11-07T09:37:58.024Z,2.87
2022-11-07T09:40:40.264Z,3.80
2022-11-07T09:43:16.790Z,3.23
2022-11-07T09:46:02.026Z,5.10
2022-11-07T09:48:32.633Z,4.17
2022-11-07T09:50:59.678Z,4.03
2022-11-07T09:53:30.819Z,3.50
2022-11-07T09:56:03.955Z,2.60
2022-11-07T09:58:36.588Z,5.57
2022-11-07T10:01:05.883Z,3.83
2022-11-07T10:03:35.556Z,3.80
2022-11-07T10:06:24.577Z,3.90
2022-11-07T10:08:54.215Z,3.23
2022-11-07T10:11:30.827Z,4.20
2022-11-07T10:14:16.919Z,4.03
2022-11-07T10:16:49.794Z,3.30
2022-11-07T10:19:24.510Z,2.93
2022-11-07T10:21:59.087Z,2.40
2022-11-07T10:24:26.128Z,3.90
2022-11-07T10:26:53.577Z,1.60
2022-11-07T10:29:21.684Z,3.17
2022-11-07T10:31:55.202Z,2.00
2022-11-07T10:34:26.861Z,2.10
2022-11-07T10:36:53.926Z,1.47
2022-11-07T10:39:20.978Z,4.60
2022-11-07T10:42:00.794Z,2.27
2022-11-07T10:44:28.191Z,1.30
2022-11-07T10:46:55.315Z,1.80
2022-11-07T10:49:24.065Z,1.93
2022-11-07T10:51:51.874Z,1.13
2022-11-07T10:54:21.855Z,2.70
2022-11-07T10:57:02.006Z,2.90
2022-11-07T10:59:35.567Z,1.93
2022-11-07T11:02:04.305Z,3.60
2022-11-07T11:04:38.380Z,2.60
2022-11-07T11:07:06.820Z,3.33
2022-11-07T11:09:35.185Z,1.37
2022-11-07T11:12:06.304Z,2.73
2022-11-07T11:14:33.343Z,3.40
2022-11-07T11:17:00.546Z,1.43
2022-11-07T11:19:29.061Z,2.07
2022-11-07T11:21:58.170Z,2.27
2022-11-07T11:24:31.680Z,2.93
2022-11-07T11:27:25.145Z,1.47
2022-11-07T11:29:52.145Z,1.97
2022-11-07T11:32:23.310Z,1.90
2022-11-07T11:34:53.700Z,2.83
2022-11-07T11:37:22.299Z,1.17
2022-11-07T11:40:04.092Z,3.13
2022-11-07T11:42:37.292Z,1.50
2022-11-07T11:45:09.560Z,1.60
2022-11-07T11:47:41.805Z,1.80
2022-11-07T11:50:19.799Z,2.00
2022-11-07T11:52:46.819Z,3.40
2022-11-07T11:55:17.766Z,3.13
2022-11-07T11:58:07.539Z,1.37
2022-11-07T12:00:40.385Z,1.90
2022-11-07T12:03:16.738Z,3.00
2022-11-07T12:05:43.968Z,2.00
2022-11-07T12:08:17.102Z,4.27
2022-11-07T12:10:50.049Z,2.07
2022-11-07T12:13:38.514Z,1.67
2022-11-07T12:16:08.304Z,3.77
2022-11-07T12:18:43.666Z,5.77
2022-11-07T12:21:16.828Z,1.30
2022-11-07T12:23:45.124Z,2.70
2022-11-07T12:26:30.703Z,4.50
2022-11-07T12:28:57.703Z,3.13
2022-11-07T12:31:35.811Z,1.30
2022-11-07T12:34:02.823Z,1.20
2022-11-07T12:36:34.648Z,2.40
2022-11-07T12:39:01.661Z,2.13
2022-11-07T12:41:47.379Z,3.40
2022-11-07T12:44:20.508Z,5.23
2022-11-07T12:46:47.546Z,3.53
2022-11-07T12:49:26.896Z,2.27
2022-11-07T12:52:06.729Z,1.73
2022-11-07T12:54:33.762Z,2.37
2022-11-07T12:57:03.115Z,2.83
2022-11-07T12:59:31.868Z,4.30
2022-11-07T13:02:01.859Z,2.47
2022-11-07T13:04:35.171Z,2.80
2022-11-07T13:07:08.072Z,3.23
2022-11-07T13:09:56.839Z,3.63
2022-11-07T13:12:44.107Z,2.63
2022-11-07T13:15:12.062Z,2.20
2022-11-07T13:17:40.658Z,2.40
2022-11-07T13:20:25.367Z,4.40
2022-11-07T13:22:53.699Z,2.83
2022-11-07T13:25:23.897Z,2.20
2022-11-07T13:27:53.792Z,2.73
2022-11-07T13:30:21.674Z,2.63
2022-11-07T13:32:49.740Z,1.90
2022-11-07T13:35:29.075Z,2.67
2022-11-07T13:37:58.927Z,2.77
2022-11-07T13:40:27.893Z,1.60
2022-11-07T13:42:57.922Z,3.40
2022-11-07T13:45:30.103Z,1.83
2022-11-07T13:47:58.913Z,1.17
2022-11-07T13:50:32.196Z,1.70
2022-11-07T13:53:01.094Z,3.60
2022-11-07T13:55:37.371Z,2.80
2022-11-07T13:58:07.597Z,3.07
2022-11-07T14:00:34.719Z,2.40
2022-11-07T14:03:01.970Z,2.03
2022-11-07T14:05:34.624Z,2.63
2022-11-07T14:08:03.181Z,1.47
2022-11-07T14:10:32.460Z,3.00
2022-11-07T14:13:07.952Z,5.30
2022-11-07T14:15:36.317Z,1.93
2022-11-07T14:18:03.821Z,1.10
2022-11-07T14:20:30.892Z,2.37
2022-11-07T14:23:00.532Z,2.00
2022-11-07T14:25:36.702Z,2.13
2022-11-07T14:28:06.726Z,2.20
2022-11-07T14:30:34.834Z,2.03
2022-11-07T14:33:04.724Z,1.27
2022-11-07T14:35:35.366Z,1.20
2022-11-07T14:38:12.741Z,3.57
2022-11-07T14:40:41.680Z,3.13
2022-11-07T14:43:12.371Z,1.77
2022-11-07T14:46:10.867Z,2.80
2022-11-07T14:48:29.164Z,2.27
2022-11-07T14:50:57.284Z,1.47
2022-11-07T14:53:25.533Z,2.47
2022-11-07T14:55:54.635Z,1.53
2022-11-07T14:58:25.380Z,2.13
2022-11-07T15:00:54.024Z,1.47
2022-11-07T15:03:22.162Z,1.50
2022-11-07T15:05:49.594Z,1.40
2022-11-07T15:08:28.134Z,1.90
2022-11-07T15:11:07.250Z,1.33
2022-11-07T15:13:34.922Z,2.33
2022-11-07T15:16:06.649Z,1.97
2022-11-07T15:18:36.243Z,3.93
2022-11-07T15:21:03.340Z,1.87
2022-11-07T15:23:34.459Z,2.60
2022-11-07T15:26:07.638Z,2.53
2022-11-07T15:28:48.202Z,1.10
2022-11-07T15:31:29.217Z,2.07
2022-11-07T15:33:57.721Z,2.20
2022-11-07T15:36:25.378Z,1.97
2022-11-07T15:38:54.045Z,3.27
2022-11-07T15:41:21.076Z,1.87
2022-11-07T15:43:48.175Z,1.63
2022-11-07T15:46:26.154Z,2.40
2022-11-07T15:48:53.507Z,2.33
2022-11-07T15:51:20.582Z,7.67
2022-11-07T15:53:47.689Z,1.93
2022-11-07T15:56:15.861Z,1.83
2022-11-07T15:58:42.929Z,1.80
2022-11-07T16:01:10.108Z,2.03
2022-11-07T16:03:37.247Z,1.50
2022-11-07T16:06:13.050Z,2.93
2022-11-07T16:08:40.133Z,2.07
2022-11-07T16:11:11.439Z,3.60
2022-11-07T16:13:39.134Z,2.37
2022-11-07T16:16:06.595Z,2.47
2022-11-07T16:18:43.130Z,1.77
2022-11-07T16:21:10.235Z,4.60
2022-11-07T16:23:37.298Z,1.70
2022-11-07T16:26:04.384Z,3.20
2022-11-07T16:28:32.762Z,3.93
2022-11-07T16:31:00.007Z,5.00
2022-11-07T16:33:27.880Z,6.60
2022-11-07T16:35:56.843Z,2.83
2022-11-07T16:38:24.608Z,2.23
2022-11-07T16:40:52.051Z,1.80
2022-11-07T16:43:19.180Z,2.60
2022-11-07T16:45:47.647Z,2.73
2022-11-07T16:48:22.649Z,2.60
2022-11-07T16:50:49.917Z,3.57
2022-11-07T16:53:17.471Z,5.30
2022-11-07T16:55:49.446Z,3.77
2022-11-07T16:58:25.399Z,4.63
2022-11-07T17:00:53.235Z,5.10
2022-11-07T17:03:20.394Z,5.40
2022-11-07T17:05:47.931Z,6.13
2022-11-07T17:08:19.481Z,5.27
2022-11-07T17:10:47.246Z,5.67
2022-11-07T17:13:14.482Z,7.43
2022-11-07T17:15:42.059Z,6.00
2022-11-07T17:18:18.252Z,6.40
2022-11-07T17:20:52.789Z,5.33
2022-11-07T17:23:23.944Z,10.73
2022-11-07T17:25:54.642Z,7.53
2022-11-07T17:28:22.613Z,4.90
2022-11-07T17:30:49.647Z,4.67
2022-11-07T17:33:16.783Z,6.20
2022-11-07T17:35:43.971Z,7.57
2022-11-07T17:38:19.365Z,5.43
2022-11-07T17:40:46.682Z,7.70
2022-11-07T17:43:13.740Z,6.17
2022-11-07T17:45:41.046Z,6.30
2022-11-07T17:48:09.347Z,6.30
2022-11-07T17:50:36.471Z,11.83
2022-11-07T17:53:03.509Z,7.63
2022-11-07T17:55:30.585Z,9.83
2022-11-07T17:57:57.626Z,7.90
2022-11-07T18:00:27.119Z,8.97
2022-11-07T18:02:54.388Z,4.73
2022-11-07T18:05:24.072Z,7.10
2022-11-07T18:07:52.684Z,8.53
2022-11-07T18:10:19.768Z,4.23
2022-11-07T18:12:46.786Z,6.33
2022-11-07T18:15:13.907Z,5.93
2022-11-07T18:17:42.126Z,6.13
2022-11-07T18:20:09.667Z,4.30
2022-11-07T18:22:37.427Z,5.13
2022-11-07T18:25:07.726Z,9.27
2022-11-07T18:27:35.197Z,6.63
2022-11-07T18:30:03.079Z,6.40
2022-11-07T18:32:35.829Z,7.53
2022-11-07T18:35:04.366Z,8.17
2022-11-07T18:37:31.440Z,6.80
2022-11-07T18:39:58.569Z,7.63
2022-11-07T18:42:25.587Z,8.73
2022-11-07T18:44:52.664Z,7.47
2022-11-07T18:47:19.680Z,8.17
2022-11-07T18:49:46.694Z,5.43
2022-11-07T18:52:13.741Z,6.00
2022-11-07T18:54:40.765Z,7.73
2022-11-07T18:57:07.937Z,7.43
2022-11-07T18:59:34.968Z,5.27
2022-11-07T19:02:02.117Z,8.17
2022-11-07T19:04:29.182Z,8.57
2022-11-07T19:06:57.159Z,7.17
2022-11-07T19:09:25.731Z,6.37
2022-11-07T19:11:52.816Z,7.03
2022-11-07T19:14:19.990Z,6.67
2022-11-07T19:16:47.331Z,6.10
2022-11-07T19:19:14.420Z,5.93
2022-11-07T19:21:43.749Z,5.90
2022-11-07T19:24:12.671Z,7.00
2022-11-07T19:26:39.740Z,6.10
2022-11-07T19:29:09.184Z,7.13
2022-11-07T19:31:37.022Z,6.67
2022-11-07T19:34:04.150Z,5.17
2022-11-07T19:36:31.672Z,11.10
2022-11-07T19:38:58.754Z,8.00
2022-11-07T19:41:26.024Z,6.00
2022-11-07T19:43:53.165Z,8.50
2022-11-07T19:46:22.756Z,8.07
2022-11-07T19:48:50.367Z,8.87
2022-11-07T19:51:22.109Z,7.13
2022-11-07T19:53:57.088Z,7.37
2022-11-07T19:56:24.903Z,6.37
2022-11-07T19:58:52.284Z,5.90
2022-11-07T20:01:20.934Z,5.93
2022-11-07T20:03:49.342Z,6.20
2022-11-07T20:06:17.754Z,6.13
2022-11-07T20:08:46.226Z,6.63
2022-11-07T20:11:14.225Z,5.53
2022-11-07T20:13:41.270Z,6.30
2022-11-07T20:16:09.105Z,5.43
2022-11-07T20:18:37.229Z,5.23
2022-11-07T20:21:05.565Z,6.07
2022-11-07T20:23:32.747Z,5.97
2022-11-07T20:25:59.898Z,5.47
2022-11-07T20:28:26.969Z,9.13
2022-11-07T20:30:55.853Z,4.23
2022-11-07T20:33:24.600Z,4.00
2022-11-07T20:36:01.612Z,4.73
2022-11-07T20:38:29.430Z,5.53
2022-11-07T20:40:56.818Z,5.23
2022-11-07T20:43:23.906Z,5.90
2022-11-07T20:45:50.972Z,5.60
2022-11-07T20:48:18.619Z,5.70
2022-11-07T20:50:45.892Z,8.33
2022-11-07T20:53:12.931Z,6.90
2022-11-07T20:55:41.275Z,4.63
2022-11-07T20:58:08.388Z,6.90
2022-11-07T21:00:36.505Z,7.70
2022-11-07T21:03:03.716Z,6.43
2022-11-07T21:05:31.016Z,4.73
2022-11-07T21:07:58.129Z,6.87
2022-11-07T21:10:25.215Z,3.53
2022-11-07T21:12:52.260Z,3.97
2022-11-07T21:15:19.323Z,6.87
2022-11-07T21:17:46.380Z,4.23
2022-11-07T21:20:13.492Z,5.13
2022-11-07T21:22:40.633Z,4.23
2022-11-07T21:25:08.003Z,4.70
2022-11-07T21:27:36.308Z,4.07
2022-11-07T21:30:04.734Z,4.70
2022-11-07T21:32:32.931Z,5.57
2022-11-07T21:35:00.023Z,4.20
2022-11-07T21:37:27.082Z,4.90
2022-11-07T21:39:54.116Z,4.40
2022-11-07T21:42:21.201Z,6.93
2022-11-07T21:44:48.335Z,5.47
2022-11-07T21:47:15.443Z,4.10
2022-11-07T21:49:42.533Z,4.57
2022-11-07T21:52:09.599Z,5.83
2022-11-07T21:54:36.628Z,3.70
2022-11-07T21:57:03.875Z,5.63
2022-11-07T21:59:31.079Z,3.37
2022-11-07T22:01:58.482Z,4.30
2022-11-07T22:04:25.623Z,4.47
2022-11-07T22:06:52.719Z,5.53
2022-11-07T22:09:22.315Z,5.07
2022-11-07T22:11:50.328Z,3.47
2022-11-07T22:14:18.813Z,5.23
2022-11-07T22:16:46.018Z,4.90
2022-11-07T22:19:13.395Z,5.00
2022-11-07T22:21:40.928Z,3.97
2022-11-07T22:24:08.182Z,3.77
2022-11-07T22:26:35.686Z,2.40
2022-11-07T22:29:02.995Z,4.00
2022-11-07T22:31:31.050Z,3.90
2022-11-07T22:33:59.315Z,5.03
2022-11-07T22:36:26.356Z,5.10
2022-11-07T22:38:53.455Z,8.23
2022-11-07T22:41:21.603Z,3.00
2022-11-07T22:43:48.945Z,2.50
2022-11-07T22:46:17.760Z,4.50
2022-11-07T22:48:46.115Z,3.47
2022-11-07T22:51:15.054Z,2.40
2022-11-07T22:53:42.163Z,3.53
2022-11-07T22:56:10.395Z,2.57
2022-11-07T22:58:37.593Z,3.73
2022-11-07T23:01:05.440Z,3.87
2022-11-07T23:03:33.326Z,3.03
2022-11-07T23:06:04.345Z,2.77
2022-11-07T23:08:32.255Z,3.30
2022-11-07T23:14:00.538Z,3.27
2022-11-07T23:16:38.878Z,1.97
2022-11-07T23:19:07.490Z,2.80
2022-11-07T23:21:34.791Z,6.63
2022-11-07T23:24:02.305Z,3.97
2022-11-07T23:26:36.421Z,4.70
2022-11-07T23:29:10.036Z,2.87
2022-11-07T23:31:37.787Z,2.93
2022-11-07T23:34:04.802Z,6.40
2022-11-07T23:36:31.846Z,3.43
2022-11-07T23:39:03.265Z,3.50
2022-11-07T23:41:30.316Z,2.90
2022-11-07T23:43:57.336Z,3.40
2022-11-07T23:46:42.842Z,5.73
2022-11-07T23:49:28.970Z,3.70
2022-11-07T23:51:56.042Z,3.77
2022-11-07T23:54:41.643Z,5.13
2022-11-07T23:57:08.719Z,2.80
2022-11-07T23:59:55.242Z,3.73
